createdAt,value
2023-03-15T00:00:22.029Z,54.30
2023-03-15T00:02:48.581Z,54.40
2023-03-15T00:05:15.208Z,54.00
2023-03-15T00:07:41.826Z,53.80
2023-03-15T00:10:08.672Z,54.20
2023-03-15T00:12:35.269Z,54.10
2023-03-15T00:15:01.826Z,54.00
2023-03-15T00:17:28.385Z,54.00
2023-03-15T00:19:54.973Z,54.20
2023-03-15T00:22:23.281Z,54.00
2023-03-15T00:24:49.944Z,54.40
2023-03-15T00:27:16.494Z,54.00
2023-03-15T00:29:43.070Z,53.90
2023-03-15T00:32:09.764Z,53.80
2023-03-15T00:34:36.342Z,54.40
2023-03-15T00:37:02.921Z,54.10
2023-03-15T00:39:29.519Z,54.10
2023-03-15T00:41:57.045Z,53.90
2023-03-15T00:44:24.502Z,54.30
2023-03-15T00:46:51.159Z,54.00
2023-03-15T00:49:18.261Z,53.90
2023-03-15T00:51:44.856Z,53.80
2023-03-15T00:54:13.822Z,54.40
2023-03-15T00:56:41.226Z,54.30
2023-03-15T00:59:08.592Z,53.80
2023-03-15T01:01:35.292Z,54.40
2023-03-15T01:04:01.908Z,54.20
2023-03-15T01:06:28.884Z,53.80
2023-03-15T01:08:57.007Z,53.40
2023-03-15T01:11:24.894Z,53.50
2023-03-15T01:13:52.242Z,53.70
2023-03-15T01:16:19.046Z,53.60
2023-03-15T01:18:45.647Z,54.00
2023-03-15T01:21:13.746Z,53.90
2023-03-15T01:23:40.505Z,53.90
2023-03-15T01:26:08.558Z,53.90
2023-03-15T01:28:35.158Z,53.70
2023-03-15T01:31:01.752Z,53.80
2023-03-15T01:33:28.593Z,54.60
2023-03-15T01:36:02.524Z,53.80
2023-03-15T01:38:29.173Z,54.00
2023-03-15T01:40:56.084Z,53.90
2023-03-15T01:43:24.169Z,53.60
2023-03-15T01:45:57.346Z,54.10
2023-03-15T01:48:25.747Z,53.70
2023-03-15T01:50:55.153Z,54.00
2023-03-15T01:53:23.357Z,53.60
2023-03-15T01:55:53.057Z,53.70
2023-03-15T01:58:21.246Z,53.60
2023-03-15T02:00:47.868Z,53.40
2023-03-15T02:03:17.801Z,53.90
2023-03-15T02:05:47.306Z,53.90
2023-03-15T02:08:15.580Z,54.00
2023-03-15T02:10:43.543Z,53.40
2023-03-15T02:13:11.143Z,53.60
2023-03-15T02:15:37.724Z,53.70
2023-03-15T02:18:04.283Z,53.20
2023-03-15T02:20:39.321Z,54.00
2023-03-15T02:23:07.419Z,53.20
2023-03-15T02:25:36.933Z,53.50
2023-03-15T02:28:05.759Z,53.20
2023-03-15T02:30:32.328Z,53.00
2023-03-15T02:33:01.308Z,52.90
2023-03-15T02:35:29.891Z,52.90
2023-03-15T02:37:56.452Z,53.30
2023-03-15T02:40:24.057Z,53.10
2023-03-15T02:42:53.689Z,53.00
2023-03-15T02:45:20.807Z,53.10
2023-03-15T02:47:47.932Z,53.10
2023-03-15T02:50:14.500Z,53.20
2023-03-15T02:52:41.062Z,53.00
2023-03-15T02:55:07.806Z,52.90
2023-03-15T02:57:35.297Z,52.80
2023-03-15T03:00:14.176Z,53.80
2023-03-15T03:02:41.755Z,52.90
2023-03-15T03:05:08.603Z,53.60
2023-03-15T03:07:35.914Z,52.70
2023-03-15T03:10:03.795Z,52.60
2023-03-15T03:12:30.366Z,53.00
2023-03-15T03:14:56.945Z,53.10
2023-03-15T03:17:23.802Z,52.60
2023-03-15T03:19:51.686Z,53.20
2023-03-15T03:22:18.253Z,53.30
2023-03-15T03:24:45.951Z,52.50
2023-03-15T03:27:14.901Z,52.50
2023-03-15T03:29:41.847Z,52.80
2023-03-15T03:32:08.656Z,52.70
2023-03-15T03:34:35.295Z,53.40
2023-03-15T03:37:01.966Z,53.00
2023-03-15T03:39:28.520Z,52.90
2023-03-15T03:41:55.082Z,52.50
2023-03-15T03:44:21.634Z,52.00
2023-03-15T03:46:48.210Z,52.10
2023-03-15T03:49:14.931Z,52.30
2023-03-15T03:51:41.494Z,52.20
2023-03-15T03:54:08.035Z,52.00
2023-03-15T03:56:34.607Z,53.20
2023-03-15T03:59:01.196Z,52.60
2023-03-15T04:01:27.798Z,52.30
2023-03-15T04:03:54.348Z,52.10
2023-03-15T04:06:22.544Z,52.80
2023-03-15T04:08:49.092Z,52.10
2023-03-15T04:11:17.556Z,52.20
2023-03-15T04:13:45.402Z,53.00
2023-03-15T04:16:12.700Z,52.80
2023-03-15T04:18:40.207Z,52.40
2023-03-15T04:21:10.745Z,52.30
2023-03-15T04:23:37.792Z,52.20
2023-03-15T04:26:05.699Z,53.10
2023-03-15T04:28:32.639Z,52.30
2023-03-15T04:30:59.354Z,52.20
2023-03-15T04:33:26.397Z,52.00
2023-03-15T04:35:52.984Z,51.60
2023-03-15T04:38:19.911Z,52.60
2023-03-15T04:40:46.451Z,52.50
2023-03-15T04:43:12.990Z,52.10
2023-03-15T04:45:39.595Z,52.40
2023-03-15T04:48:06.225Z,51.80
2023-03-15T04:50:32.802Z,51.40
2023-03-15T04:52:59.749Z,51.80
2023-03-15T04:55:26.439Z,52.20
2023-03-15T04:57:53.018Z,51.50
2023-03-15T05:00:19.642Z,51.30
2023-03-15T05:02:52.022Z,52.10
2023-03-15T05:05:18.847Z,51.50
2023-03-15T05:07:45.482Z,51.60
2023-03-15T05:10:12.113Z,51.20
2023-03-15T05:12:38.935Z,51.00
2023-03-15T05:15:05.815Z,51.10
2023-03-15T05:17:33.670Z,51.00
2023-03-15T05:20:10.454Z,51.10
2023-03-15T05:22:37.175Z,51.10
2023-03-15T05:25:04.035Z,51.20
2023-03-15T05:27:32.608Z,52.00
2023-03-15T05:29:59.422Z,51.40
2023-03-15T05:32:26.917Z,51.10
2023-03-15T05:34:54.717Z,50.60
2023-03-15T05:37:22.132Z,51.10
2023-03-15T05:39:48.802Z,51.40
2023-03-15T05:42:15.867Z,51.30
2023-03-15T05:44:42.426Z,50.80
2023-03-15T05:47:09.049Z,51.70
2023-03-15T05:49:35.665Z,51.90
2023-03-15T05:52:02.210Z,52.50
2023-03-15T05:54:28.791Z,51.90
2023-03-15T05:56:55.440Z,51.20
2023-03-15T05:59:22.026Z,50.60
2023-03-15T06:01:48.637Z,51.40
2023-03-15T06:04:15.252Z,51.20
2023-03-15T06:06:41.882Z,50.70
2023-03-15T06:09:08.511Z,50.60
2023-03-15T06:11:35.081Z,50.50
2023-03-15T06:14:02.077Z,50.00
2023-03-15T06:16:28.679Z,50.60
2023-03-15T06:18:55.377Z,50.40
2023-03-15T06:21:22.238Z,51.40
2023-03-15T06:23:48.775Z,51.10
2023-03-15T06:26:15.449Z,50.40
2023-03-15T06:28:42.053Z,50.70
2023-03-15T06:31:09.387Z,51.40
2023-03-15T06:33:35.980Z,50.30
2023-03-15T06:36:02.726Z,50.20
2023-03-15T06:38:31.170Z,49.70
2023-03-15T06:41:01.184Z,50.60
2023-03-15T06:43:27.990Z,50.40
2023-03-15T06:45:56.019Z,50.20
2023-03-15T06:48:22.754Z,51.00
2023-03-15T06:50:49.303Z,49.90
2023-03-15T06:53:16.012Z,50.40
2023-03-15T06:55:42.878Z,50.70
2023-03-15T06:58:09.532Z,50.60
2023-03-15T07:00:36.134Z,51.20
2023-03-15T07:03:02.771Z,50.60
2023-03-15T07:05:29.643Z,50.90
2023-03-15T07:07:56.309Z,50.40
2023-03-15T07:10:22.975Z,50.40
2023-03-15T07:12:49.613Z,50.40
2023-03-15T07:15:17.516Z,50.30
2023-03-15T07:17:44.203Z,50.50
2023-03-15T07:20:11.292Z,50.30
2023-03-15T07:22:38.642Z,50.60
2023-03-15T07:25:07.407Z,50.70
2023-03-15T07:27:34.110Z,51.30
2023-03-15T07:30:01.222Z,51.40
2023-03-15T07:32:28.012Z,51.80
2023-03-15T07:34:58.192Z,51.60
2023-03-15T07:37:24.937Z,51.10
2023-03-15T07:39:51.498Z,51.30
2023-03-15T07:42:18.062Z,51.50
2023-03-15T07:44:44.683Z,51.30
2023-03-15T07:47:11.354Z,51.50
2023-03-15T07:49:37.998Z,51.30
2023-03-15T07:52:04.682Z,50.50
2023-03-15T07:54:32.062Z,50.50
2023-03-15T07:56:58.690Z,51.30
2023-03-15T07:59:25.616Z,51.10
2023-03-15T08:01:52.306Z,50.90
2023-03-15T08:04:18.921Z,51.40
2023-03-15T08:06:45.498Z,50.90
2023-03-15T08:09:12.146Z,50.60
2023-03-15T08:11:39.070Z,51.10
2023-03-15T08:14:05.825Z,51.10
2023-03-15T08:16:32.490Z,51.30
2023-03-15T08:18:59.079Z,51.30
2023-03-15T08:21:25.712Z,51.10
2023-03-15T08:23:52.285Z,51.20
2023-03-15T08:26:19.033Z,51.70
2023-03-15T08:28:45.578Z,51.60
2023-03-15T08:31:14.120Z,51.80
2023-03-15T08:33:40.937Z,51.10
2023-03-15T08:36:07.708Z,51.20
2023-03-15T08:38:35.784Z,51.40
2023-03-15T08:41:03.533Z,51.40
2023-03-15T08:43:30.380Z,50.70
2023-03-15T08:46:01.136Z,51.20
2023-03-15T08:48:28.347Z,51.20
2023-03-15T08:50:54.987Z,51.40
2023-03-15T08:53:21.589Z,51.20
2023-03-15T08:55:49.545Z,51.30
2023-03-15T08:58:16.348Z,51.40
2023-03-15T09:00:43.150Z,51.40
2023-03-15T09:03:09.741Z,51.80
2023-03-15T09:05:36.417Z,51.50
2023-03-15T09:08:03.160Z,51.50
2023-03-15T09:10:29.770Z,51.20
2023-03-15T09:12:56.354Z,51.60
2023-03-15T09:15:23.214Z,51.50
2023-03-15T09:17:51.652Z,51.80
2023-03-15T09:20:19.270Z,51.90
2023-03-15T09:22:55.498Z,51.60
2023-03-15T09:25:22.714Z,51.50
2023-03-15T09:27:49.394Z,51.20
2023-03-15T09:30:16.169Z,51.00
2023-03-15T09:32:44.201Z,51.00
2023-03-15T09:35:13.654Z,50.50
2023-03-15T09:37:40.313Z,50.60
2023-03-15T09:40:08.172Z,50.80
2023-03-15T09:42:48.889Z,51.00
2023-03-15T09:45:23.271Z,51.20
2023-03-15T09:47:52.661Z,51.30
2023-03-15T09:50:21.357Z,51.10
2023-03-15T09:52:55.886Z,51.20
2023-03-15T09:55:23.573Z,51.30
2023-03-15T09:57:50.147Z,51.20
2023-03-15T10:00:21.308Z,50.90
2023-03-15T10:02:53.167Z,51.00
2023-03-15T10:05:26.062Z,50.90
2023-03-15T10:07:52.949Z,51.30
2023-03-15T10:10:22.379Z,51.20
2023-03-15T10:12:53.150Z,51.40
2023-03-15T10:15:24.047Z,50.50
2023-03-15T10:17:57.605Z,51.00
2023-03-15T10:20:47.686Z,51.30
2023-03-15T10:23:18.079Z,51.50
2023-03-15T10:25:45.817Z,51.70
2023-03-15T10:28:24.403Z,52.00
2023-03-15T10:30:53.959Z,51.60
2023-03-15T10:33:20.536Z,51.60
2023-03-15T10:35:47.198Z,51.80
2023-03-15T10:38:17.753Z,51.70
2023-03-15T10:40:45.745Z,51.40
2023-03-15T10:43:21.921Z,51.40
2023-03-15T10:45:58.122Z,51.60
2023-03-15T10:48:24.683Z,51.60
2023-03-15T10:50:51.490Z,51.70
2023-03-15T10:53:21.781Z,51.70
2023-03-15T10:55:48.827Z,52.50
2023-03-15T10:58:18.367Z,53.70
2023-03-15T11:00:52.561Z,55.20
2023-03-15T11:03:21.182Z,55.20
2023-03-15T11:05:49.036Z,55.20
2023-03-15T11:08:17.591Z,56.60
2023-03-15T11:10:44.733Z,55.90
2023-03-15T11:13:14.488Z,56.60
2023-03-15T11:15:47.523Z,57.20
2023-03-15T11:18:18.483Z,56.70
2023-03-15T11:20:45.550Z,56.00
2023-03-15T11:23:18.107Z,55.90
2023-03-15T11:25:44.881Z,56.60
2023-03-15T11:28:17.125Z,56.00
2023-03-15T11:30:44.786Z,56.30
2023-03-15T11:33:14.740Z,56.60
2023-03-15T11:35:48.321Z,55.70
2023-03-15T11:38:18.476Z,55.90
2023-03-15T11:40:49.939Z,57.40
2023-03-15T11:43:55.603Z,55.80
2023-03-15T11:46:28.005Z,57.10
2023-03-15T11:49:10.164Z,57.00
2023-03-15T11:51:36.722Z,57.20
2023-03-15T11:54:14.251Z,57.20
2023-03-15T11:56:43.996Z,57.10
2023-03-15T11:59:12.940Z,58.50
2023-03-15T12:01:45.715Z,58.10
2023-03-15T12:04:24.530Z,59.00
2023-03-15T12:06:53.242Z,59.30
2023-03-15T12:09:39.617Z,58.00
2023-03-15T12:12:24.616Z,57.40
2023-03-15T12:15:03.843Z,58.10
2023-03-15T12:17:30.505Z,57.50
2023-03-15T12:19:59.133Z,58.60
2023-03-15T12:22:30.886Z,58.40
2023-03-15T12:24:59.017Z,58.60
2023-03-15T12:27:28.245Z,58.90
2023-03-15T12:29:59.732Z,58.60
2023-03-15T12:32:27.444Z,58.50
2023-03-15T12:34:55.935Z,58.50
2023-03-15T12:37:31.578Z,58.70
2023-03-15T12:40:22.593Z,59.00
2023-03-15T12:42:49.371Z,59.20
2023-03-15T12:45:16.004Z,59.20
2023-03-15T12:47:51.914Z,58.70
2023-03-15T12:50:37.551Z,58.80
2023-03-15T12:53:11.733Z,58.90
2023-03-15T12:55:38.811Z,58.40
2023-03-15T12:58:06.915Z,59.20
2023-03-15T13:00:35.392Z,58.00
2023-03-15T13:03:06.384Z,57.60
2023-03-15T13:05:49.170Z,57.60
2023-03-15T13:08:30.735Z,57.70
2023-03-15T13:11:07.796Z,57.50
2023-03-15T13:13:46.383Z,57.40
2023-03-15T13:16:22.138Z,57.40
2023-03-15T13:19:05.378Z,57.50
2023-03-15T13:21:34.769Z,57.60
2023-03-15T13:24:02.092Z,57.80
2023-03-15T13:26:47.505Z,58.00
2023-03-15T13:29:17.459Z,58.00
2023-03-15T13:31:44.884Z,58.20
2023-03-15T13:34:16.720Z,58.40
2023-03-15T13:36:47.443Z,58.40
2023-03-15T13:39:23.170Z,58.40
2023-03-15T13:41:50.256Z,58.40
2023-03-15T13:44:21.648Z,58.20
2023-03-15T13:46:48.823Z,58.20
2023-03-15T13:49:15.526Z,58.60
2023-03-15T13:51:42.339Z,58.60
2023-03-15T13:54:25.320Z,58.60
2023-03-15T13:57:10.787Z,58.30
2023-03-15T13:59:44.650Z,58.10
2023-03-15T14:02:15.501Z,58.80
2023-03-15T14:04:42.358Z,58.80
2023-03-15T14:07:18.472Z,58.00
2023-03-15T14:09:45.506Z,58.00
2023-03-15T14:12:17.442Z,58.30
2023-03-15T14:14:51.509Z,57.90
2023-03-15T14:17:26.579Z,58.20
2023-03-15T14:19:54.974Z,58.70
2023-03-15T14:22:21.555Z,58.90
2023-03-15T14:24:49.868Z,58.20
2023-03-15T14:27:18.530Z,58.00
2023-03-15T14:29:54.921Z,58.10
2023-03-15T14:32:29.778Z,58.40
2023-03-15T14:35:01.379Z,58.00
2023-03-15T14:37:30.420Z,58.00
2023-03-15T14:40:15.015Z,57.70
2023-03-15T14:42:42.377Z,57.90
2023-03-15T14:45:09.433Z,58.00
2023-03-15T14:47:48.609Z,58.00
2023-03-15T14:50:22.453Z,58.40
2023-03-15T14:52:49.955Z,57.80
2023-03-15T14:55:18.406Z,57.80
2023-03-15T14:57:45.262Z,57.90
2023-03-15T15:00:13.707Z,58.00
2023-03-15T15:02:40.924Z,58.00
2023-03-15T15:05:25.544Z,57.60
2023-03-15T15:07:54.791Z,57.10
2023-03-15T15:10:22.554Z,57.00
2023-03-15T15:12:56.128Z,57.30
2023-03-15T15:15:31.011Z,57.30
2023-03-15T15:18:00.218Z,57.10
2023-03-15T15:20:26.803Z,56.90
2023-03-15T15:22:53.428Z,57.20
2023-03-15T15:25:21.650Z,57.10
2023-03-15T15:27:48.989Z,57.30
2023-03-15T15:30:17.760Z,57.60
2023-03-15T15:32:47.345Z,57.60
2023-03-15T15:35:15.595Z,57.50
2023-03-15T15:37:43.112Z,57.50
2023-03-15T15:40:20.632Z,57.40
2023-03-15T15:42:47.652Z,57.60
2023-03-15T15:45:15.735Z,57.40
2023-03-15T15:47:42.306Z,57.30
2023-03-15T15:50:16.575Z,57.20
2023-03-15T15:52:44.129Z,57.20
2023-03-15T15:55:15.539Z,57.10
2023-03-15T15:57:42.529Z,57.20
2023-03-15T16:00:13.684Z,57.30
2023-03-15T16:02:40.845Z,57.60
2023-03-15T16:05:09.880Z,57.70
2023-03-15T16:07:37.546Z,57.40
2023-03-15T16:10:05.297Z,57.40
2023-03-15T16:12:32.750Z,57.10
2023-03-15T16:14:59.311Z,57.10
2023-03-15T16:17:27.084Z,57.00
2023-03-15T16:19:54.085Z,57.60
2023-03-15T16:22:22.187Z,57.00
2023-03-15T16:24:50.817Z,57.00
2023-03-15T16:27:21.084Z,57.00
2023-03-15T16:29:48.591Z,56.90
2023-03-15T16:32:20.861Z,56.90
2023-03-15T16:34:53.848Z,56.60
2023-03-15T16:37:22.529Z,56.60
2023-03-15T16:39:50.608Z,56.60
2023-03-15T16:42:17.926Z,56.70
2023-03-15T16:44:44.691Z,56.20
2023-03-15T16:47:11.334Z,56.50
2023-03-15T16:49:38.044Z,56.20
2023-03-15T16:52:06.169Z,56.10
2023-03-15T16:54:41.071Z,56.10
2023-03-15T16:57:13.328Z,56.10
2023-03-15T16:59:39.909Z,56.30
2023-03-15T17:02:15.668Z,56.40
2023-03-15T17:04:42.307Z,56.20
2023-03-15T17:07:10.818Z,56.00
2023-03-15T17:09:37.480Z,56.20
2023-03-15T17:12:04.199Z,56.10
2023-03-15T17:14:33.580Z,56.00
2023-03-15T17:17:03.085Z,56.10
2023-03-15T17:19:30.875Z,56.20
2023-03-15T17:21:57.468Z,56.30
2023-03-15T17:24:24.114Z,56.00
2023-03-15T17:26:50.962Z,56.20
2023-03-15T17:29:17.550Z,56.00
2023-03-15T17:31:44.654Z,55.90
2023-03-15T17:34:11.332Z,56.40
2023-03-15T17:36:38.205Z,56.10
2023-03-15T17:39:05.393Z,56.10
2023-03-15T17:41:33.426Z,56.10
2023-03-15T17:44:00.250Z,56.20
2023-03-15T17:46:32.962Z,56.10
2023-03-15T17:49:00.599Z,56.00
2023-03-15T17:51:28.699Z,55.90
2023-03-15T17:53:55.451Z,55.90
2023-03-15T17:56:24.962Z,55.70
2023-03-15T17:58:52.510Z,55.70
2023-03-15T18:01:20.942Z,55.60
2023-03-15T18:03:48.997Z,55.70
2023-03-15T18:06:16.871Z,55.70
2023-03-15T18:08:43.744Z,55.70
2023-03-15T18:11:24.680Z,55.70
2023-03-15T18:13:51.388Z,55.80
2023-03-15T18:16:18.065Z,56.00
2023-03-15T18:18:44.706Z,55.60
2023-03-15T18:21:12.828Z,55.20
2023-03-15T18:23:39.405Z,55.30
2023-03-15T18:26:06.170Z,55.00
2023-03-15T18:28:32.887Z,55.20
2023-03-15T18:30:59.428Z,55.00
2023-03-15T18:33:26.603Z,54.90
2023-03-15T18:35:53.588Z,54.90
2023-03-15T18:38:20.175Z,55.00
2023-03-15T18:40:46.948Z,54.80
2023-03-15T18:43:14.888Z,54.90
2023-03-15T18:45:41.916Z,54.70
2023-03-15T18:48:08.792Z,54.50
2023-03-15T18:50:35.482Z,54.40
2023-03-15T18:53:03.996Z,54.40
2023-03-15T18:55:32.190Z,54.50
2023-03-15T18:57:58.769Z,54.70
2023-03-15T19:00:27.447Z,54.50
2023-03-15T19:02:55.280Z,54.60
2023-03-15T19:05:22.090Z,54.50
2023-03-15T19:07:48.693Z,54.40
2023-03-15T19:10:16.221Z,54.20
2023-03-15T19:12:44.818Z,54.40
2023-03-15T19:15:12.047Z,54.20
2023-03-15T19:17:39.026Z,54.40
2023-03-15T19:20:06.667Z,54.40
2023-03-15T19:22:33.810Z,54.30
2023-03-15T19:25:00.485Z,53.90
2023-03-15T19:27:27.141Z,54.20
2023-03-15T19:29:53.703Z,54.40
2023-03-15T19:32:20.803Z,54.00
2023-03-15T19:34:47.697Z,54.50
2023-03-15T19:37:14.257Z,54.10
2023-03-15T19:39:40.861Z,54.60
2023-03-15T19:42:08.084Z,54.00
2023-03-15T19:44:36.053Z,54.20
2023-03-15T19:47:02.836Z,53.80
2023-03-15T19:49:29.442Z,53.60
2023-03-15T19:51:56.007Z,53.80
2023-03-15T19:54:22.628Z,54.00
2023-03-15T19:56:49.196Z,53.80
2023-03-15T19:59:15.782Z,53.90
2023-03-15T20:01:42.467Z,53.90
2023-03-15T20:04:09.196Z,54.00
2023-03-15T20:06:35.859Z,54.10
2023-03-15T20:09:02.738Z,54.10
2023-03-15T20:11:30.106Z,54.00
2023-03-15T20:13:56.674Z,53.90
2023-03-15T20:16:23.495Z,53.70
2023-03-15T20:18:55.205Z,53.30
2023-03-15T20:21:21.990Z,53.30
2023-03-15T20:23:48.789Z,53.10
2023-03-15T20:26:16.809Z,53.60
2023-03-15T20:28:44.272Z,53.30
2023-03-15T20:31:12.472Z,53.10
2023-03-15T20:33:39.142Z,53.50
2023-03-15T20:36:06.223Z,53.30
2023-03-15T20:38:34.426Z,52.90
2023-03-15T20:41:01.088Z,53.10
2023-03-15T20:43:27.666Z,53.10
2023-03-15T20:45:54.766Z,52.90
2023-03-15T20:48:23.204Z,53.00
2023-03-15T20:50:49.764Z,53.20
2023-03-15T20:53:16.335Z,52.90
2023-03-15T20:55:43.715Z,53.40
2023-03-15T20:58:11.191Z,53.00
2023-03-15T21:00:40.862Z,53.00
2023-03-15T21:03:07.707Z,53.50
2023-03-15T21:05:34.343Z,52.90
2023-03-15T21:08:00.929Z,53.10
2023-03-15T21:10:27.541Z,52.90
2023-03-15T21:12:54.168Z,52.80
2023-03-15T21:15:20.925Z,52.70
2023-03-15T21:17:49.269Z,53.00
2023-03-15T21:20:16.774Z,52.80
2023-03-15T21:22:43.477Z,52.80
2023-03-15T21:25:10.247Z,52.60
2023-03-15T21:27:36.823Z,52.90
2023-03-15T21:30:03.801Z,52.80
2023-03-15T21:32:30.372Z,52.90
2023-03-15T21:34:57.024Z,52.70
2023-03-15T21:37:23.711Z,52.80
2023-03-15T21:39:50.276Z,52.90
2023-03-15T21:42:16.849Z,52.40
2023-03-15T21:44:43.474Z,52.50
2023-03-15T21:47:10.192Z,52.80
2023-03-15T21:49:36.759Z,52.60
2023-03-15T21:52:03.441Z,52.70
2023-03-15T21:54:30.065Z,52.80
2023-03-15T21:56:56.678Z,52.50
2023-03-15T21:59:28.002Z,52.60
2023-03-15T22:01:55.240Z,53.00
2023-03-15T22:04:21.993Z,52.50
2023-03-15T22:06:48.744Z,52.40
2023-03-15T22:09:15.350Z,52.40
2023-03-15T22:11:41.943Z,52.40
2023-03-15T22:14:08.517Z,52.60
2023-03-15T22:16:35.290Z,52.50
2023-03-15T22:19:03.357Z,52.50
2023-03-15T22:21:30.882Z,52.50
2023-03-15T22:23:57.461Z,52.50
2023-03-15T22:26:24.196Z,52.60
2023-03-15T22:28:51.590Z,52.60
2023-03-15T22:31:18.421Z,52.40
2023-03-15T22:33:45.114Z,52.30
2023-03-15T22:36:11.684Z,52.20
2023-03-15T22:38:38.408Z,52.20
2023-03-15T22:41:08.650Z,52.40
2023-03-15T22:43:35.602Z,52.90
2023-03-15T22:46:02.246Z,52.40
2023-03-15T22:48:28.854Z,52.40
2023-03-15T22:50:58.571Z,52.50
2023-03-15T22:53:25.185Z,52.20
2023-03-15T22:55:51.768Z,52.40
2023-03-15T22:58:18.324Z,52.20
2023-03-15T23:00:45.145Z,52.10
2023-03-15T23:03:12.144Z,52.40
2023-03-15T23:05:38.827Z,52.30
2023-03-15T23:08:05.791Z,52.10
2023-03-15T23:10:32.592Z,52.30
2023-03-15T23:12:59.226Z,51.90
2023-03-15T23:15:26.235Z,52.00
2023-03-15T23:17:53.812Z,51.90
2023-03-15T23:20:20.780Z,52.10
2023-03-15T23:22:47.648Z,51.90
2023-03-15T23:25:15.652Z,51.90
2023-03-15T23:27:42.235Z,52.00
2023-03-15T23:30:09.432Z,51.40
2023-03-15T23:32:36.489Z,51.70
2023-03-15T23:35:04.039Z,51.80
2023-03-15T23:37:30.690Z,51.80
2023-03-15T23:39:57.259Z,51.70
2023-03-15T23:42:25.821Z,51.60
2023-03-15T23:44:53.598Z,51.50
2023-03-15T23:47:22.161Z,52.00
2023-03-15T23:49:49.263Z,51.60
2023-03-15T23:52:15.988Z,51.40
2023-03-15T23:54:42.725Z,51.20
2023-03-15T23:57:10.192Z,51.40
2023-03-15T23:59:37.518Z,51.40
